Latest Weather Observations for Taree Airport

IDN60801

Issued at 11:35 am EDT Thursday 23 October 2014 (issued every 30 minutes, with the page automatically refreshed every 10 minutes)

About weather observations | Map of weather stations | Latest weather observations for NSW | Other Formats
Station Details ID: 060141 Name: TAREE AIRPORT AWS Lat: -31.89 Lon: 152.51 Height: 8.0 m
Data from the previous 72 hours. | See also: Recent months at Taree Airport
Date/Time
EDT
Temp
°C
App
Temp
°C
Dew
Point
Rel
Hum
%
Delta-T
°C
Wind Press
QNH
hPa
Press
MSL
hPa
Rain
since 9 am
mm
Dir
 
Spd
km/h
Gust
km/h
Spd
kts
Gust
kts
23/11:30am 25.2 25.8 15.8 56 5.7 NE 7 11 4 6 1018.1 1018.1 0.0
23/11:00am 23.2 23.6 14.7 58 5.0 SSE 6 9 3 5 1018.4 1018.4 0.0
23/10:30am 22.7 23.3 14.3 59 4.9 ENE 4 9 2 5 1018.7 1018.7 0.0
23/10:00am 20.9 21.7 13.6 63 4.2 N 2 9 1 5 1018.9 1018.9 0.0
23/09:30am 20.2 19.9 13.4 65 3.9 ENE 7 11 4 6 1018.9 1018.9 0.0
23/09:00am 18.5 18.8 13.4 72 2.9 SW 4 9 2 5 1019.2 1019.2 0.0
23/08:30am 17.0 16.6 12.5 75 2.5 NW 6 9 3 5 1019.1 1019.1 0.0
23/08:00am 15.0 14.3 12.0 82 1.6 W 7 9 4 5 1019.3 1019.3 0.0
23/07:30am 13.7 12.6 11.9 89 1.0 W 9 13 5 7 1019.4 1019.4 0.0
23/07:00am 12.5 11.6 11.4 93 0.6 W 7 7 4 4 1019.2 1019.2 0.0
23/06:30am 11.7 12.0 10.8 94 0.5 CALM 0 0 0 0 1019.0 1019.0 0.0
23/06:00am 11.7 12.0 10.9 95 0.4 CALM 0 2 0 1 1018.9 1018.9 0.0
23/05:30am 12.1 11.4 11.5 96 0.3 WNW 6 7 3 4 1018.9 1018.9 0.0
23/05:00am 11.6 11.9 10.8 95 0.4 CALM 0 0 0 0 1018.6 1018.6 0.0
23/04:30am 11.7 12.0 10.8 94 0.5 CALM 0 0 0 0 1018.7 1018.7 0.0
23/04:00am 12.3 11.4 11.5 95 0.4 W 7 11 4 6 1018.7 1018.7 0.0
23/03:30am 12.4 12.9 11.5 94 0.5 CALM 0 0 0 0 1018.7 1018.7 0.0
23/03:00am 12.8 12.6 11.9 94 0.5 NW 4 7 2 4 1019.0 1019.0 0.0
23/02:30am 13.2 13.9 12.1 93 0.6 CALM 0 0 0 0 1019.3 1019.3 0.0
23/02:00am 13.6 13.0 12.3 92 0.7 WSW 7 9 4 5 1019.6 1019.6 0.0
23/01:30am 14.3 15.1 12.5 89 1.0 CALM 0 0 0 0 1019.8 1019.8 0.0
23/01:00am 14.4 15.0 11.9 85 1.3 CALM 0 0 0 0 1020.3 1020.3 0.0
23/12:30am 14.4 13.6 11.2 81 1.7 NNE 6 7 3 4 1020.5 1020.5 0.0
23/12:00am 15.9 15.4 12.1 78 2.1 NNE 6 9 3 5 1021.0 1021.0 0.0
 
Date/Time
EDT
Temp
°C
App
Temp
°C
Dew
Point
Rel
Hum
%
Delta-T
°C
Wind Press
QNH
hPa
Press
MSL
hPa
Rain
since 9 am
mm
Dir
 
Spd
km/h
Gust
km/h
Spd
kts
Gust
kts
22/11:30pm 16.1 15.5 12.3 78 2.1 NNE 7 9 4 5 1021.1 1021.1 0.0
22/11:00pm 16.5 15.5 12.3 76 2.3 NNE 9 15 5 8 1021.3 1021.3 0.0
22/10:30pm 16.7 15.8 12.5 76 2.3 NNE 9 15 5 8 1021.6 1021.6 0.0
22/10:00pm 17.0 15.4 12.7 76 2.4 NNE 13 22 7 12 1021.7 1021.7 0.0
22/09:30pm 17.0 15.0 12.7 76 2.4 NE 15 24 8 13 1022.0 1022.0 0.0
22/09:00pm 17.2 15.1 12.5 74 2.6 NE 15 24 8 13 1022.1 1022.1 0.0
22/08:30pm 17.3 15.2 12.4 73 2.7 NE 15 26 8 14 1021.8 1021.8 0.0
22/08:00pm 16.7 14.6 12.5 76 2.3 NE 15 20 8 11 1021.8 1021.8 0.0
22/07:30pm 17.4 15.0 12.7 74 2.6 ENE 17 22 9 12 1021.6 1021.6 0.0
22/07:00pm 18.3 15.7 13.2 72 2.9 ENE 19 24 10 13 1021.5 1021.5 0.0
22/06:30pm 19.1 15.4 12.8 67 3.5 ENE 24 32 13 17 1021.2 1021.2 0.0
22/06:00pm 20.1 16.2 12.1 60 4.4 ENE 24 32 13 17 1021.1 1021.1 0.0
22/05:30pm 20.5 15.8 12.0 58 4.7 ENE 28 35 15 19 1021.2 1021.2 0.0
22/05:00pm 20.8 16.5 12.0 57 4.9 E 26 37 14 20 1021.3 1021.3 0.0
22/04:30pm 21.1 17.3 12.3 57 5.0 ENE 24 35 13 19 1021.5 1021.5 0.0
22/04:00pm 21.3 17.7 11.9 55 5.2 E 22 33 12 18 1021.7 1021.7 0.0
22/03:30pm 21.5 17.2 10.6 50 6.0 E 24 33 13 18 1022.0 1022.0 0.0
22/03:00pm 21.8 17.2 11.2 51 5.8 E 26 35 14 19 1022.3 1022.3 0.0
22/02:30pm 22.7 19.5 11.1 48 6.4 E 19 26 10 14 1022.9 1022.9 0.0
22/02:00pm 21.6 17.8 9.8 47 6.3 E 20 32 11 17 1023.4 1023.4 0.0
22/01:30pm 21.5 17.8 10.3 49 6.1 E 20 30 11 16 1023.9 1023.9 0.0
22/01:00pm 21.7 18.7 10.5 49 6.1 ENE 17 24 9 13 1024.5 1024.5 0.0
22/12:30pm 21.5 18.5 12.1 55 5.3 E 19 30 10 16 1025.1 1025.1 0.0
22/12:00pm 20.9 17.9 11.8 56 5.0 E 19 26 10 14 1025.5 1025.5 0.0
22/11:30am 20.6 19.0 10.1 51 5.7 NE 9 15 5 8 1026.0 1026.0 0.0
22/11:00am 19.7 18.1 10.1 54 5.1 NE 9 15 5 8 1026.3 1026.3 0.0
22/10:30am 20.0 18.9 10.7 55 5.1 NNE 7 15 4 8 1026.7 1026.7 0.0
22/10:00am 19.3 18.6 12.1 63 4.0 WSW 7 11 4 6 1026.9 1026.9 0.0
22/09:30am 17.8 17.2 11.6 67 3.4 W 6 11 3 6 1027.1 1027.1 0.0
22/09:00am 17.1 16.3 11.8 71 2.9 W 7 11 4 6 1027.2 1027.2 0.0
22/08:30am 16.6 15.4 11.5 72 2.8 W 9 11 5 6 1027.2 1027.2 0.0
22/08:00am 14.9 13.2 11.1 78 2.0 WSW 11 15 6 8 1027.2 1027.2 0.0
22/07:30am 13.7 12.8 11.4 86 1.2 WSW 7 7 4 4 1027.2 1027.2 0.0
22/07:00am 12.8 11.0 10.9 88 1.0 W 11 13 6 7 1027.2 1027.2 0.0
22/06:30am 12.0 11.9 10.9 93 0.6 WSW 2 7 1 4 1027.1 1027.1 0.0
22/06:00am 11.5 11.1 9.8 89 0.9 WSW 2 7 1 4 1027.0 1027.0 0.0
22/05:30am 12.2 12.3 10.3 88 1.0 CALM 0 0 0 0 1026.9 1026.9 0.0
22/05:00am 12.8 11.2 10.2 84 1.3 W 9 11 5 6 1026.8 1026.8 0.0
22/04:30am 13.2 12.3 10.6 84 1.4 NW 6 9 3 5 1027.0 1027.0 0.0
22/04:00am 12.8 13.1 10.9 88 1.0 CALM 0 6 0 3 1027.4 1027.4 0.0
22/03:30am 12.9 13.2 10.8 87 1.1 CALM 0 0 0 0 1027.5 1027.5 0.0
22/03:00am 13.3 12.4 10.7 84 1.3 WNW 6 7 3 4 1027.9 1027.9 0.0
22/02:30am 13.2 11.7 10.6 84 1.4 WNW 9 13 5 7 1028.2 1028.2 0.0
22/02:00am 13.6 12.2 10.9 84 1.4 W 9 11 5 6 1028.6 1028.6 0.0
22/01:30am 13.2 12.2 10.9 86 1.2 NW 7 7 4 4 1029.0 1029.0 0.0
22/01:00am 12.1 11.1 10.3 89 0.9 NNE 6 9 3 5 1029.3 1029.3 0.0
22/12:30am 13.1 12.0 10.8 86 1.2 W 7 9 4 5 1029.5 1029.5 0.0
22/12:00am 12.9 11.6 10.1 83 1.4 WSW 7 9 4 5 1029.9 1029.9 0.0
 
Date/Time
EDT
Temp
°C
App
Temp
°C
Dew
Point
Rel
Hum
%
Delta-T
°C
Wind Press
QNH
hPa
Press
MSL
hPa
Rain
since 9 am
mm
Dir
 
Spd
km/h
Gust
km/h
Spd
kts
Gust
kts
21/11:30pm 13.9 13.0 11.2 84 1.4 WSW 7 9 4 5 1030.1 1030.1 0.0
21/11:00pm 13.5 12.4 10.5 82 1.6 NNW 7 9 4 5 1030.3 1030.3 0.0
21/10:30pm 15.0 14.1 10.6 75 2.3 SSW 6 7 3 4 1030.4 1030.4 0.0
21/10:00pm 14.8 13.6 10.4 75 2.3 SE 7 9 4 5 1030.6 1030.6 0.0
21/09:30pm 14.9 14.4 10.7 76 2.2 E 4 7 2 4 1030.6 1030.6 0.0
21/09:00pm 16.2 16.6 11.2 72 2.7 CALM 0 0 0 0 1030.4 1030.4 0.0
21/08:30pm 16.4 16.7 10.9 70 2.9 CALM 0 0 0 0 1030.2 1030.2 0.0
21/08:00pm 16.6 16.8 10.7 68 3.1 CALM 0 0 0 0 1030.1 1030.1 0.0
21/07:30pm 17.0 16.7 10.1 64 3.6 SE 2 6 1 3 1029.7 1029.7 0.0
21/07:00pm 17.1 15.7 9.5 61 3.9 SE 7 9 4 5 1029.6 1029.6 0.0
21/06:30pm 17.3 15.4 9.0 58 4.3 SE 9 13 5 7 1029.4 1029.4 0.0
21/06:00pm 17.5 14.8 8.9 57 4.4 SE 13 17 7 9 1029.2 1029.2 0.0
21/05:30pm 17.9 15.2 9.0 56 4.6 SSE 13 19 7 10 1029.1 1029.1 0.0
21/05:00pm 18.2 15.0 8.5 53 5.0 SSE 15 19 8 10 1029.2 1029.2 0.0
21/04:30pm 18.3 14.7 8.3 52 5.1 SSE 17 26 9 14 1029.1 1029.1 0.0
21/04:00pm 18.5 14.3 7.3 48 5.6 SE 19 26 10 14 1029.2 1029.2 0.0
21/03:30pm 18.6 14.5 7.7 49 5.5 SE 19 28 10 15 1029.4 1029.4 0.0
21/03:00pm 18.4 14.7 8.1 51 5.2 SE 17 24 9 13 1029.8 1029.8 0.0
21/02:30pm 18.9 15.2 8.0 49 5.6 SE 17 24 9 13 1030.0 1030.0 0.0
21/02:00pm 19.2 15.8 9.1 52 5.3 SE 17 22 9 12 1030.3 1030.3 0.0
21/01:30pm 19.3 15.7 8.3 49 5.7 SE 17 24 9 13 1030.6 1030.6 0.0
21/01:00pm 19.4 15.6 7.5 46 6.0 SSE 17 26 9 14 1030.8 1030.8 0.0
21/12:30pm 19.5 16.4 7.3 45 6.2 SSE 13 20 7 11 1030.9 1030.9 0.0
21/12:00pm 18.9 15.4 7.0 46 5.9 SSE 15 24 8 13 1031.2 1031.2 0.0
21/11:30am 19.0 15.3 7.8 48 5.7 SSE 17 26 9 14 1031.3 1031.3 0.0
21/11:00am 18.7 15.0 8.1 50 5.4 SSE 17 26 9 14 1031.5 1031.5 0.0
21/10:30am 18.2 14.9 7.9 51 5.3 SE 15 20 8 11 1031.6 1031.6 0.0
21/10:00am 17.8 15.1 7.5 51 5.2 SSE 11 17 6 9 1031.7 1031.7 0.0
21/09:30am 17.6 14.3 8.2 54 4.8 SSE 15 19 8 10 1031.7 1031.7 0.0
21/09:00am 17.4 13.6 7.7 53 4.9 SSE 17 28 9 15 1031.4 1031.4 1.0
21/08:30am 17.3 15.0 9.0 58 4.3 SE 11 17 6 9 1031.1 1031.1 1.0
21/08:00am 16.9 14.4 9.8 63 3.7 SE 13 15 7 8 1030.8 1030.8 1.0
21/07:30am 16.4 14.1 10.5 68 3.1 SSE 13 19 7 10 1030.5 1030.5 1.0
21/07:00am 15.9 14.9 10.4 70 2.9 SSE 6 11 3 6 1030.2 1030.2 1.0
21/06:30am 15.6 15.7 11.4 76 2.3 W 2 7 1 4 1029.9 1029.9 1.0
21/06:00am 15.6 14.9 11.4 76 2.2 W 6 9 3 5 1029.5 1029.5 1.0
21/05:30am 15.5 14.4 10.5 72 2.6 SSW 7 9 4 5 1029.4 1029.4 1.0
21/05:00am 15.7 14.7 11.1 74 2.4 SSW 7 9 4 5 1029.2 1029.2 1.0
21/04:30am 15.6 16.1 11.6 77 2.2 CALM 0 0 0 0 1029.2 1029.2 1.0
21/04:00am 15.7 15.0 12.1 79 1.9 W 7 9 4 5 1029.3 1029.3 1.0
21/03:30am 15.8 14.6 11.6 76 2.3 WSW 9 11 5 6 1029.3 1029.3 1.0
21/03:00am 15.9 14.6 11.3 74 2.5 SSW 9 11 5 6 1029.3 1029.3 1.0
21/02:30am 16.0 14.5 12.0 77 2.2 SSW 11 13 6 7 1029.5 1029.5 1.0
21/02:00am 16.0 14.4 12.9 82 1.7 SSW 13 17 7 9 1029.8 1029.8 1.0
21/01:30am 15.8 14.7 13.1 84 1.5 SW 11 13 6 7 1029.9 1029.9 1.0
21/01:00am 16.0 14.3 12.6 80 1.9 WSW 13 17 7 9 1030.0 1030.0 1.0
21/12:30am 15.9 15.5 13.0 83 1.6 W 7 11 4 6 1030.3 1030.3 1.0
21/12:00am 15.9 14.8 13.2 84 1.5 SW 11 15 6 8 1030.5 1030.5 1.0
 
Date/Time
EDT
Temp
°C
App
Temp
°C
Dew
Point
Rel
Hum
%
Delta-T
°C
Wind Press
QNH
hPa
Press
MSL
hPa
Rain
since 9 am
mm
Dir
 
Spd
km/h
Gust
km/h
Spd
kts
Gust
kts
20/11:30pm 16.3 14.8 13.0 81 1.8 S 13 20 7 11 1030.7 1030.7 1.0
20/11:00pm 16.6 16.2 13.1 80 1.9 S 7 9 4 5 1030.6 1030.6 1.0
20/10:30pm 16.7 15.5 12.7 77 2.2 SSW 11 13 6 7 1030.6 1030.6 1.0
20/10:00pm 16.6 15.3 12.6 77 2.2 S 11 15 6 8 1030.4 1030.4 1.0
20/09:30pm 16.5 14.9 12.8 79 2.1 S 13 17 7 9 1030.3 1030.3 1.0
20/09:00pm 16.5 14.7 13.4 82 1.7 S 15 22 8 12 1030.0 1030.0 1.0
20/08:30pm 16.6 15.4 14.1 85 1.4 S 13 19 7 10 1029.7 1029.7 1.0
20/08:00pm 16.6 16.2 14.1 85 1.4 SSW 9 13 5 7 1029.1 1029.1 1.0
20/07:30pm 16.6 15.6 14.6 88 1.1 S 13 19 7 10 1028.8 1028.8 1.0
20/07:00pm 16.5 15.7 15.2 92 0.7 S 13 19 7 10 1028.6 1028.6 1.0
20/06:30pm 16.9 16.8 15.9 94 0.6 S 11 15 6 8 1028.1 1028.1 0.8
20/06:00pm 16.9 16.7 15.8 93 0.6 S 11 17 6 9 1028.1 1028.1 0.6
20/05:30pm 19.2 16.5 13.4 69 3.3 SSW 20 28 11 15 1027.7 1027.7 0.2
20/05:00pm 19.4 16.1 12.9 66 3.6 SSW 22 32 12 17 1027.6 1027.6 0.2
20/04:30pm 20.3 17.7 13.3 64 4.0 S 19 26 10 14 1027.4 1027.4 0.2
20/04:00pm 19.8 16.9 13.0 65 3.8 SSW 20 32 11 17 1027.4 1027.4 0.2
20/03:30pm 19.9 16.3 12.9 64 4.0 S 24 32 13 17 1027.5 1027.5 0.2
20/03:00pm 20.1 16.4 12.8 63 4.1 S 24 35 13 19 1027.5 1027.5 0.2
20/02:30pm 20.5 16.9 13.0 62 4.3 SSW 24 33 13 18 1027.6 1027.6 0.2
20/02:00pm 19.1 14.9 13.5 70 3.2 SSW 28 43 15 23 1028.1 1028.1 0.2
20/01:30pm 19.3 15.7 14.1 72 3.0 SSW 26 35 14 19 1028.0 1028.0 0.2
20/01:00pm 19.0 14.2 14.7 76 2.5 S 33 43 18 23 1027.9 1027.9 0.2
20/12:30pm 20.7 15.8 15.3 71 3.2 S 35 48 19 26 1027.5 1027.5 0.0
20/12:01pm 22.2 16.9 15.3 65 4.1 SSW 37 57 20 31 1027.3 1027.3 0.0
20/12:00pm 22.5 17.3 15.6 65 4.1 SSW 37 48 20 26 1027.3 1027.3 0.0

Other Formats:

Comma delimited format used in spreadsheet applications
http://www.bom.gov.au/fwo/IDN60801/IDN60801.95784.axf

JavaScript Object Notation format (JSON) in row-major order
http://www.bom.gov.au/fwo/IDN60801/IDN60801.95784.json